Terminal Aerodrome Forecast
Issued by NWS

Home | Current Version | Previous Version | Text Only | Print | Product List | Glossary On
Versions: 1 2 3 4 5 6 7 8 9 10 11 12 13 14 15 16 17 18
000
FTUS46 KSGX 292158 AAA
TAFONT
TAF AMD
KONT 292158Z 2922/3024 25009KT P6SM SCT035 SCT100
     FM300400 VRB04KT P6SM SKC
     FM301100 VRB04KT P6SM BKN012
     FM301700 VRB04KT P6SM SCT015
     FM302100 26011G18KT P6SM SCT090=

USA.gov is the U.S. government's official web portal to all federal, state and local government web resources and services.